createdAt,value
2018-09-17T00:05:18.024Z,11.37
2018-09-17T00:09:19.426Z,11.28
2018-09-17T00:11:20.724Z,10.95
2018-09-17T00:15:23.763Z,11.47
2018-09-17T00:21:28.190Z,11.46
2018-09-17T00:25:28.933Z,11.27
2018-09-17T00:31:29.872Z,10.12
2018-09-17T00:35:30.638Z,9.99
2018-09-17T00:37:31.361Z,10.55
2018-09-17T00:41:32.270Z,10.43
2018-09-17T00:47:33.224Z,11.57
2018-09-17T00:51:33.957Z,10.29
2018-09-17T00:57:34.657Z,10.87
2018-09-17T01:03:35.403Z,10.81
2018-09-17T01:07:36.195Z,11.5
2018-09-17T01:13:36.872Z,11.33
2018-09-17T01:17:37.705Z,10.56
2018-09-17T01:23:38.505Z,10.9
2018-09-17T01:29:39.180Z,11.11
2018-09-17T01:33:39.888Z,11.4
2018-09-17T01:39:40.717Z,11.77
2018-09-17T01:43:41.466Z,11.87
2018-09-17T01:45:42.217Z,11.17
2018-09-17T01:49:42.980Z,10.73
2018-09-17T01:55:43.788Z,11.51
2018-09-17T01:59:44.478Z,10.53
2018-09-17T02:05:45.277Z,11.85
2018-09-17T02:11:46.080Z,10.97
2018-09-17T02:15:46.837Z,10.75
2018-09-17T02:21:47.752Z,11.21
2018-09-17T02:25:48.548Z,10.37
2018-09-17T02:27:49.210Z,11.94
2018-09-17T02:31:49.981Z,10.94
2018-09-17T02:37:50.707Z,11.77
2018-09-17T02:41:51.506Z,11.64
2018-09-17T02:47:52.343Z,11.23
2018-09-17T02:51:53.109Z,10.09
2018-09-17T02:53:53.840Z,11.55
2018-09-17T02:57:54.607Z,11.72
2018-09-17T03:03:55.396Z,11.77
2018-09-17T03:07:56.189Z,11.16
2018-09-17T03:13:57.009Z,11.29
2018-09-17T03:19:57.800Z,12.18
2018-09-17T03:23:58.597Z,11.25
2018-09-17T03:29:59.342Z,12.24
2018-09-17T03:34:00.266Z,11.25
2018-09-17T03:36:01.074Z,11.82
2018-09-17T03:40:01.866Z,11.29
2018-09-17T03:46:02.617Z,12.1
2018-09-17T03:50:03.388Z,11.05
2018-09-17T03:56:04.127Z,10.8
2018-09-17T04:02:04.812Z,11.23
2018-09-17T04:06:05.756Z,11.77
2018-09-17T04:12:06.623Z,11.98
2018-09-17T04:16:07.606Z,10.69
2018-09-17T04:22:08.422Z,11.58
2018-09-17T04:28:09.150Z,10.46
2018-09-17T04:32:09.933Z,10.66
2018-09-17T04:38:10.655Z,12.52
2018-09-17T04:42:11.881Z,11.22
2018-09-17T04:44:12.565Z,11.47
2018-09-17T04:48:13.269Z,11.55
2018-09-17T04:54:14.046Z,13.38
2018-09-17T04:58:14.721Z,12.1
2018-09-17T05:04:15.587Z,12.7
2018-09-17T05:10:16.325Z,11.81
2018-09-17T05:14:17.157Z,11.53
2018-09-17T05:20:18.123Z,12.15
2018-09-17T05:24:18.915Z,11.67
2018-09-17T05:26:19.653Z,12.02
2018-09-17T05:30:20.710Z,11.57
2018-09-17T05:36:21.466Z,11.37
2018-09-17T05:40:22.220Z,11.28
2018-09-17T05:46:23.282Z,11.18
2018-09-17T05:50:24.010Z,11.57
2018-09-17T05:52:24.714Z,11.54
2018-09-17T05:56:25.537Z,10.57
2018-09-17T06:02:26.275Z,11.29
2018-09-17T06:06:27.057Z,12.25
2018-09-17T06:12:27.788Z,10.9
2018-09-17T06:18:28.670Z,13
2018-09-17T06:22:29.946Z,12.04
2018-09-17T06:28:30.857Z,12.77
2018-09-17T06:32:31.689Z,11.88
2018-09-17T06:34:32.351Z,12.44
2018-09-17T06:38:33.194Z,11.31
2018-09-17T06:44:34.051Z,12.93
2018-09-17T06:48:34.870Z,12.18
2018-09-17T06:54:35.795Z,13.19
2018-09-17T07:00:36.812Z,14.78
2018-09-17T07:04:37.570Z,14.28
2018-09-17T07:10:38.406Z,14.06
2018-09-17T07:14:39.213Z,13.99
2018-09-17T07:20:39.976Z,11.95
2018-09-17T07:26:40.709Z,14.32
2018-09-17T07:30:41.739Z,13.5
2018-09-17T07:36:42.695Z,15.15
2018-09-17T07:40:43.315Z,14.99
2018-09-17T07:42:44.078Z,23.63
2018-09-17T07:46:44.833Z,27.97
2018-09-17T07:52:45.663Z,24.4
2018-09-17T07:56:46.330Z,23
2018-09-17T08:02:47.066Z,18.24
2018-09-17T08:08:48.671Z,18.85
2018-09-17T08:12:49.512Z,19.54
2018-09-17T08:18:50.432Z,13.42
2018-09-17T08:22:51.283Z,13.54
2018-09-17T08:24:51.959Z,12.95
2018-09-17T08:28:52.892Z,13.63
2018-09-17T08:34:53.710Z,14.17
2018-09-17T08:38:54.378Z,16.29
2018-09-17T08:44:55.243Z,14.69
2018-09-17T08:48:56.037Z,13.73
2018-09-17T08:50:56.776Z,15.95
2018-09-17T08:54:57.509Z,14.21
2018-09-17T09:00:58.222Z,14.51
2018-09-17T09:04:59.062Z,12.42
2018-09-17T09:11:00.005Z,14.9
2018-09-17T09:17:00.741Z,17.49
2018-09-17T09:21:01.479Z,17.47
2018-09-17T09:27:02.338Z,16.79
2018-09-17T09:31:03.413Z,15.48
2018-09-17T09:33:10.191Z,14.78
2018-09-17T09:37:10.897Z,16.87
2018-09-17T09:43:11.669Z,29.76
2018-09-17T09:47:12.420Z,26.22
2018-09-17T09:53:13.367Z,16.1
2018-09-17T09:57:14.307Z,16.56
2018-09-17T09:59:15.063Z,14.85
2018-09-17T10:03:16.025Z,14.5
2018-09-17T10:09:16.882Z,13.78
2018-09-17T10:13:17.678Z,14.38
2018-09-17T10:19:18.505Z,15.96
2018-09-17T10:25:19.365Z,15.12
2018-09-17T10:29:20.126Z,13.99
2018-09-17T10:35:25.659Z,14.76
2018-09-17T10:39:26.633Z,14.37
2018-09-17T10:41:27.254Z,15.56
2018-09-17T10:51:30.488Z,16.28
2018-09-17T10:51:30.667Z,15.61
2018-09-17T10:55:33.625Z,15.78
2018-09-17T11:01:36.157Z,15.48
2018-09-17T11:05:40.007Z,14.5
2018-09-17T11:07:40.673Z,16.34
2018-09-17T11:11:41.550Z,15.34
2018-09-17T11:17:42.117Z,15.92
2018-09-17T11:21:42.749Z,15.43
2018-09-17T11:27:43.541Z,13.67
2018-09-17T11:31:44.277Z,12.83
2018-09-17T11:33:44.962Z,12.1
2018-09-17T11:37:45.766Z,12.11
2018-09-17T11:43:46.456Z,10.39
2018-09-17T11:47:47.266Z,9.8
2018-09-17T11:53:47.976Z,11.52
2018-09-17T11:59:49.043Z,11.92
2018-09-17T12:03:51.148Z,12.18
2018-09-17T12:09:51.877Z,9.51
2018-09-17T12:13:52.615Z,9.59
2018-09-17T12:15:53.350Z,7.82
2018-09-17T12:19:54.164Z,7.98
2018-09-17T12:25:54.908Z,11.04
2018-09-17T12:29:55.814Z,9.08
2018-09-17T12:35:56.602Z,9.34
2018-09-17T12:41:57.633Z,8.48
2018-09-17T12:45:58.344Z,8.24
2018-09-17T12:51:59.029Z,8.65
2018-09-17T12:55:59.789Z,7.81
2018-09-17T12:58:00.579Z,8.44
2018-09-17T13:02:01.386Z,7.48
2018-09-17T13:08:02.187Z,8.43
2018-09-17T13:12:02.988Z,7.41
2018-09-17T13:18:03.806Z,8.7
2018-09-17T13:22:04.488Z,8.21
2018-09-17T13:24:05.185Z,9.16
2018-09-17T13:28:05.845Z,8.99
2018-09-17T13:34:06.768Z,9.13
2018-09-17T13:34:06.776Z,9.13
2018-09-17T13:38:07.569Z,9.28
2018-09-17T13:44:08.237Z,9.62
2018-09-17T13:50:09.333Z,8.29
2018-09-17T13:54:10.129Z,8.88
2018-09-17T14:00:11.020Z,9.06
2018-09-17T14:04:11.938Z,8.99
2018-09-17T14:06:12.531Z,8.8
2018-09-17T14:10:13.446Z,8.2
2018-09-17T14:16:14.162Z,8.9
2018-09-17T14:20:14.942Z,7.97
2018-09-17T14:26:16.169Z,8.47
2018-09-17T14:32:16.781Z,9.41
2018-09-17T14:36:17.549Z,9.87
2018-09-17T14:42:18.381Z,9.32
2018-09-17T14:46:19.312Z,9.59
2018-09-17T14:48:20.123Z,10.31
2018-09-17T14:52:22.999Z,10.12
2018-09-17T14:58:23.752Z,9.13
2018-09-17T15:02:24.512Z,8.25
2018-09-17T15:08:25.628Z,8.88
2018-09-17T15:12:26.350Z,9.18
2018-09-17T15:14:27.104Z,9.14
2018-09-17T15:18:27.728Z,8.35
2018-09-17T15:24:28.468Z,9.4
2018-09-17T15:28:29.407Z,9.73
2018-09-17T15:34:30.057Z,7.75
2018-09-17T15:40:30.843Z,7.66
2018-09-17T15:44:31.532Z,8.45
2018-09-17T15:50:32.231Z,7.93
2018-09-17T15:54:33.104Z,7.44
2018-09-17T15:56:33.894Z,10.66
2018-09-17T16:00:34.755Z,10.62
2018-09-17T16:06:35.519Z,9.25
2018-09-17T16:10:36.248Z,10.32
2018-09-17T16:16:37.006Z,8.98
2018-09-17T16:22:37.755Z,10.33
2018-09-17T16:26:38.734Z,11.49
2018-09-17T16:32:39.496Z,8.69
2018-09-17T16:36:41.361Z,9.47
2018-09-17T16:38:42.128Z,10.01
2018-09-17T16:42:42.870Z,9.43
2018-09-17T16:48:48.579Z,9.63
2018-09-17T16:52:50.125Z,9.6
2018-09-17T16:58:50.983Z,11.56
2018-09-17T17:02:51.763Z,11.38
2018-09-17T17:04:52.596Z,10.45
2018-09-17T17:08:53.314Z,11.44
2018-09-17T17:14:54.030Z,11.98
2018-09-17T17:18:54.904Z,11.72
2018-09-17T17:24:55.510Z,12.52
2018-09-17T17:28:56.224Z,12.6
2018-09-17T17:30:56.953Z,14.21
2018-09-17T17:34:57.777Z,11.97
2018-09-17T17:40:58.634Z,13.92
2018-09-17T17:44:59.453Z,11.64
2018-09-17T17:51:00.231Z,16.52
2018-09-17T17:55:00.974Z,14.36
2018-09-17T17:57:01.953Z,11.81
2018-09-17T18:01:02.819Z,11.92
2018-09-17T18:07:03.530Z,14.54
2018-09-17T18:11:04.317Z,12.8
2018-09-17T18:17:05.073Z,10
2018-09-17T18:23:05.910Z,10.63
2018-09-17T18:27:06.696Z,10.86
2018-09-17T18:33:07.423Z,11.65
2018-09-17T18:37:08.178Z,10.33
2018-09-17T18:43:09.062Z,9.12
2018-09-17T18:49:09.912Z,8.26
2018-09-17T18:53:10.613Z,10.14
2018-09-17T18:59:11.434Z,7.55
2018-09-17T19:03:12.318Z,7.95
2018-09-17T19:09:13.123Z,7.93
2018-09-17T19:15:14.612Z,8.39
2018-09-17T19:19:15.347Z,8.24
2018-09-17T19:25:16.402Z,7.84
2018-09-17T19:29:17.137Z,9.8
2018-09-17T19:35:17.965Z,8.42
2018-09-17T19:41:20.711Z,8.86
2018-09-17T19:51:25.201Z,10.88
2018-09-17T19:51:25.335Z,8.16
2018-09-17T19:55:26.209Z,7.74
2018-09-17T20:01:27.151Z,9.33
2018-09-17T20:07:27.919Z,8.5
2018-09-17T20:11:29.627Z,7.94
2018-09-17T20:17:32.234Z,7.73
2018-09-17T20:21:35.679Z,7.31
2018-09-17T20:27:36.681Z,7.81
2018-09-17T20:33:38.675Z,8.79
2018-09-17T20:38:12.723Z,8.73
2018-09-17T20:42:13.813Z,6.81
2018-09-17T20:44:14.753Z,6.68
2018-09-17T20:48:15.563Z,7.81
2018-09-17T20:54:16.503Z,7.92
2018-09-17T20:58:17.248Z,7.66
2018-09-17T21:04:17.996Z,8.05
2018-09-17T21:08:18.753Z,8.48
2018-09-17T21:10:19.470Z,9.19
2018-09-17T21:14:20.526Z,8.4
2018-09-17T21:20:21.263Z,9.57
2018-09-17T21:24:21.992Z,9.46
2018-09-17T21:30:23.285Z,8.91
2018-09-17T21:34:24.238Z,8.08
2018-09-17T21:36:24.904Z,10.17
2018-09-17T21:40:25.694Z,8.5
2018-09-17T21:46:26.440Z,10.1
2018-09-17T21:50:27.101Z,7.65
2018-09-17T21:56:28.127Z,8.9
2018-09-17T22:00:29.330Z,9.31
2018-09-17T22:02:30.099Z,8.26
2018-09-17T22:06:30.828Z,9.07
2018-09-17T22:12:31.499Z,8.29
2018-09-17T22:16:32.268Z,9.15
2018-09-17T22:22:33.078Z,10.11
2018-09-17T22:26:33.865Z,7.7
2018-09-17T22:28:34.624Z,8.55
2018-09-17T22:32:35.304Z,8.53
2018-09-17T22:38:36.067Z,9.01
2018-09-17T22:42:36.875Z,7.29
2018-09-17T22:48:37.568Z,6.89
2018-09-17T22:54:38.267Z,8.02
2018-09-17T22:58:38.935Z,7.83
2018-09-17T23:04:39.767Z,7.34
2018-09-17T23:08:40.498Z,6.92
2018-09-17T23:14:41.212Z,8.68
2018-09-17T23:20:42.086Z,9.31
2018-09-17T23:24:42.780Z,8.02
2018-09-17T23:30:43.494Z,7.36
2018-09-17T23:34:44.305Z,8
2018-09-17T23:40:45.047Z,7.07
2018-09-17T23:46:45.917Z,9.44
2018-09-17T23:50:46.614Z,7.99
2018-09-17T23:56:47.405Z,8.53
